La rose des vents
Donnes mto: Semaine 28/02/22 - 06/03/22 (S 9)
Date Horaire Temp. E. Hum. E. P.atmo. Pluie Vent 1mn Direction Ensoleilleme Ev.Tr. Solaire P. de rose Temp au vent Rafales
28/02/2022 00:00 3,8 C 68 % 1027,4 hPa 0,0 l/m 1,0 km/h (0 Bft) O-NO 0,00 h 0,025 mm 0 W/m -1,6 C 3,8 C 3,1 km/h (1 Bft)
28/02/2022 01:00 3,9 C 63 % 1027,2 hPa 0,0 l/m 1,0 km/h (0 Bft) O-NO 0,00 h 0,025 mm 0 W/m -2,4 C 3,9 C 2,7 km/h (1 Bft)
28/02/2022 02:00 4,1 C 60 % 1027,1 hPa 0,0 l/m 2,7 km/h (1 Bft) O-NO 0,00 h 0,025 mm 0 W/m -3,1 C 4,0 C 5,4 km/h (1 Bft)
28/02/2022 03:00 3,8 C 55 % 1026,6 hPa 0,0 l/m 2,7 km/h (1 Bft) O-NO 0,00 h 0,025 mm 0 W/m -4,3 C 3,7 C 5,6 km/h (1 Bft)
28/02/2022 04:00 3,7 C 52 % 1026,4 hPa 0,0 l/m 1,5 km/h (1 Bft) NO 0,00 h 0,025 mm 0 W/m -5,3 C 3,6 C 3,9 km/h (1 Bft)
28/02/2022 05:00 3,7 C 48 % 1026,1 hPa 0,0 l/m 0,4 km/h (0 Bft) NO 0,00 h 0,025 mm 0 W/m -6,3 C 3,7 C 1,6 km/h (1 Bft)
28/02/2022 06:00 3,6 C 48 % 1026,0 hPa 0,0 l/m 0,3 km/h (0 Bft) NO 0,00 h 0,025 mm 0 W/m -6,5 C 3,6 C 0,9 km/h (0 Bft)
28/02/2022 07:00 3,4 C 49 % 1026,1 hPa 0,0 l/m 0,1 km/h (0 Bft) NO 0,32 h 0,000 mm 34 W/m -6,3 C 3,4 C 0,4 km/h (0 Bft)
28/02/2022 08:00 5,5 C 45 % 1026,2 hPa 0,0 l/m 0,0 km/h (0 Bft) N 1,00 h 0,025 mm 177 W/m -5,6 C 5,5 C 0,0 km/h (0 Bft)
28/02/2022 09:00 9,9 C 41 % 1026,0 hPa 0,0 l/m 0,0 km/h (0 Bft) N 1,00 h 0,076 mm 337 W/m -2,6 C 9,9 C 0,0 km/h (0 Bft)
28/02/2022 10:00 12,7 C 35 % 1025,9 hPa 0,0 l/m 0,3 km/h (0 Bft) SO 1,00 h 0,152 mm 470 W/m -2,5 C 12,7 C 0,9 km/h (0 Bft)
28/02/2022 11:00 14,1 C 36 % 1025,5 hPa 0,0 l/m 2,0 km/h (1 Bft) S-SO 1,00 h 0,254 mm 557 W/m -0,6 C 14,1 C 5,0 km/h (1 Bft)
28/02/2022 12:00 14,7 C 43 % 1025,0 hPa 0,0 l/m 2,9 km/h (1 Bft) E 1,00 h 0,305 mm 594 W/m 2,4 C 14,7 C 6,9 km/h (2 Bft)
28/02/2022 13:00 15,7 C 47 % 1024,2 hPa 0,0 l/m 1,7 km/h (1 Bft) E 1,00 h 0,330 mm 573 W/m 4,3 C 15,7 C 5,3 km/h (1 Bft)
28/02/2022 14:00 16,0 C 46 % 1023,3 hPa 0,0 l/m 2,2 km/h (1 Bft) E 1,00 h 0,330 mm 503 W/m 4,5 C 16,0 C 5,9 km/h (2 Bft)
28/02/2022 15:00 15,4 C 46 % 1022,6 hPa 0,0 l/m 2,1 km/h (1 Bft) S-SE 1,00 h 0,279 mm 391 W/m 3,8 C 15,4 C 5,5 km/h (1 Bft)
28/02/2022 16:00 15,2 C 49 % 1021,8 hPa 0,0 l/m 0,7 km/h (0 Bft) SE 1,00 h 0,229 mm 244 W/m 4,6 C 15,2 C 2,3 km/h (1 Bft)
28/02/2022 17:00 14,7 C 58 % 1021,0 hPa 0,0 l/m 0,0 km/h (0 Bft) N 0,92 h 0,127 mm 90 W/m 6,5 C 14,7 C 0,1 km/h (0 Bft)
28/02/2022 18:00 11,1 C 69 % 1020,8 hPa 0,0 l/m 0,0 km/h (0 Bft) N 0,02 h 0,051 mm 9 W/m 5,5 C 11,1 C 0,0 km/h (0 Bft)
28/02/2022 19:00 8,6 C 75 % 1020,8 hPa 0,0 l/m 0,0 km/h (0 Bft) N 0,00 h 0,000 mm 0 W/m 4,4 C 8,6 C 0,1 km/h (0 Bft)
28/02/2022 20:00 8,0 C 68 % 1021,0 hPa 0,0 l/m 0,0 km/h (0 Bft) N 0,00 h 0,025 mm 0 W/m 2,5 C 8,0 C 0,1 km/h (0 Bft)
28/02/2022 21:00 7,7 C 67 % 1021,1 hPa 0,0 l/m 0,0 km/h (0 Bft) N 0,00 h 0,025 mm 0 W/m 1,9 C 7,7 C 0,1 km/h (0 Bft)
28/02/2022 22:00 7,2 C 67 % 1021,4 hPa 0,0 l/m 0,6 km/h (0 Bft) SE 0,00 h 0,025 mm 0 W/m 1,4 C 7,2 C 1,6 km/h (1 Bft)
28/02/2022 23:00 7,3 C 64 % 1021,7 hPa 0,0 l/m 0,3 km/h (0 Bft) SE 0,00 h 0,050 mm 0 W/m 1,0 C 7,3 C 1,2 km/h (1 Bft)
01/03/2022 00:00 6,8 C 66 % 1022,3 hPa 0,0 l/m 0,2 km/h (0 Bft) SE 0,00 h 0,000 mm 0 W/m 0,8 C 6,8 C 1,3 km/h (1 Bft)
01/03/2022 01:00 6,5 C 68 % 1023,2 hPa 0,0 l/m 0,1 km/h (0 Bft) E-SE 0,00 h 0,025 mm 0 W/m 1,1 C 6,5 C 0,9 km/h (0 Bft)
01/03/2022 02:00 6,1 C 70 % 1023,6 hPa 0,0 l/m 0,2 km/h (0 Bft) E-SE 0,00 h 0,025 mm 0 W/m 1,1 C 6,1 C 1,0 km/h (0 Bft)
01/03/2022 03:00 6,4 C 83 % 1024,3 hPa 0,0 l/m 0,8 km/h (0 Bft) N-NO 0,00 h 0,025 mm 0 W/m 3,7 C 6,4 C 3,5 km/h (1 Bft)
01/03/2022 04:00 7,5 C 75 % 1025,0 hPa 0,0 l/m 1,4 km/h (1 Bft) N-NE 0,00 h 0,000 mm 0 W/m 3,4 C 7,5 C 4,6 km/h (1 Bft)
01/03/2022 05:00 7,6 C 66 % 1025,5 hPa 0,0 l/m 3,3 km/h (1 Bft) E-SE 0,00 h 0,025 mm 0 W/m 1,6 C 7,3 C 8,2 km/h (2 Bft)
01/03/2022 06:00 7,3 C 77 % 1026,8 hPa 0,0 l/m 4,2 km/h (1 Bft) E 0,00 h 0,025 mm 0 W/m 3,4 C 6,8 C 12,8 km/h (3 Bft)
01/03/2022 07:00 7,5 C 73 % 1027,8 hPa 0,0 l/m 4,5 km/h (1 Bft) E 0,00 h 0,025 mm 29 W/m 3,0 C 6,9 C 13,4 km/h (3 Bft)
01/03/2022 08:00 9,1 C 66 % 1028,1 hPa 0,0 l/m 2,6 km/h (1 Bft) E 0,82 h 0,025 mm 166 W/m 3,1 C 9,0 C 8,8 km/h (2 Bft)
01/03/2022 09:00 11,1 C 55 % 1028,3 hPa 0,0 l/m 0,0 km/h (0 Bft) E 1,00 h 0,076 mm 322 W/m 2,4 C 11,1 C 0,4 km/h (0 Bft)
01/03/2022 10:00 13,2 C 49 % 1028,2 hPa 0,0 l/m 1,3 km/h (1 Bft) S 1,00 h 0,152 mm 487 W/m 2,7 C 13,2 C 3,9 km/h (1 Bft)
01/03/2022 11:00 13,5 C 45 % 1028,2 hPa 0,0 l/m 2,7 km/h (1 Bft) E 0,73 h 0,254 mm 510 W/m 1,7 C 13,5 C 6,8 km/h (2 Bft)
01/03/2022 12:00 13,3 C 47 % 1028,1 hPa 0,0 l/m 1,8 km/h (1 Bft) E 0,68 h 0,279 mm 509 W/m 2,1 C 13,3 C 5,4 km/h (1 Bft)
01/03/2022 13:00 14,3 C 44 % 1027,5 hPa 0,0 l/m 2,2 km/h (1 Bft) E 0,92 h 0,279 mm 524 W/m 2,3 C 14,3 C 6,3 km/h (2 Bft)
01/03/2022 14:00 13,0 C 45 % 1027,0 hPa 0,0 l/m 2,1 km/h (1 Bft) E 0,58 h 0,279 mm 383 W/m 1,4 C 13,0 C 6,6 km/h (2 Bft)
01/03/2022 15:00 12,6 C 44 % 1026,5 hPa 0,0 l/m 1,6 km/h (1 Bft) E 0,70 h 0,203 mm 327 W/m 0,7 C 12,6 C 5,3 km/h (1 Bft)
01/03/2022 16:00 12,3 C 46 % 1025,9 hPa 0,0 l/m 1,0 km/h (0 Bft) SE 1,00 h 0,178 mm 230 W/m 1,2 C 12,3 C 3,5 km/h (1 Bft)
01/03/2022 17:00 10,6 C 51 % 1025,7 hPa 0,0 l/m 1,2 km/h (1 Bft) SE 0,47 h 0,127 mm 73 W/m 0,8 C 10,6 C 3,1 km/h (1 Bft)
01/03/2022 18:00 8,0 C 58 % 1025,9 hPa 0,0 l/m 0,3 km/h (0 Bft) SE 0,00 h 0,051 mm 9 W/m 0,3 C 8,0 C 0,9 km/h (0 Bft)
01/03/2022 19:00 7,0 C 61 % 1025,9 hPa 0,0 l/m 0,3 km/h (0 Bft) SE 0,00 h 0,000 mm 0 W/m 0,1 C 7,0 C 1,1 km/h (0 Bft)
01/03/2022 20:00 5,9 C 66 % 1026,0 hPa 0,0 l/m 0,5 km/h (0 Bft) SE 0,00 h 0,025 mm 0 W/m -0,0 C 5,9 C 1,8 km/h (1 Bft)
01/03/2022 21:00 5,1 C 69 % 1026,5 hPa 0,0 l/m 0,6 km/h (0 Bft) SE 0,00 h 0,025 mm 0 W/m -0,0 C 5,1 C 2,3 km/h (1 Bft)
01/03/2022 22:00 5,2 C 70 % 1026,9 hPa 0,0 l/m 1,1 km/h (1 Bft) SE 0,00 h 0,025 mm 0 W/m 0,3 C 5,2 C 3,2 km/h (1 Bft)
01/03/2022 23:00 5,9 C 68 % 1027,0 hPa 0,0 l/m 0,1 km/h (0 Bft) SE 0,00 h 0,025 mm 0 W/m 0,6 C 5,9 C 1,5 km/h (1 Bft)
02/03/2022 00:00 6,4 C 68 % 1026,7 hPa 0,0 l/m 0,2 km/h (0 Bft) SE 0,00 h 0,025 mm 0 W/m 0,9 C 6,4 C 1,4 km/h (1 Bft)
02/03/2022 01:00 6,4 C 67 % 1026,4 hPa 0,0 l/m 0,1 km/h (0 Bft) SE 0,00 h 0,025 mm 0 W/m 0,8 C 6,4 C 0,5 km/h (0 Bft)
02/03/2022 02:00 5,6 C 69 % 1026,2 hPa 0,0 l/m 0,0 km/h (0 Bft) N 0,00 h 0,025 mm 0 W/m 0,3 C 5,6 C 0,3 km/h (0 Bft)
02/03/2022 03:00 4,9 C 71 % 1025,8 hPa 0,0 l/m 0,3 km/h (0 Bft) SE 0,00 h 0,025 mm 0 W/m 0,0 C 4,9 C 1,0 km/h (0 Bft)
02/03/2022 04:00 4,8 C 72 % 1025,5 hPa 0,0 l/m 1,2 km/h (1 Bft) SE 0,00 h 0,025 mm 0 W/m 0,1 C 4,8 C 3,6 km/h (1 Bft)
02/03/2022 05:00 4,5 C 71 % 1025,3 hPa 0,0 l/m 0,4 km/h (0 Bft) SE 0,00 h 0,025 mm 0 W/m -0,3 C 4,5 C 1,9 km/h (1 Bft)
02/03/2022 06:00 4,0 C 72 % 1025,2 hPa 0,0 l/m 0,5 km/h (0 Bft) SE 0,00 h 0,025 mm 0 W/m -0,6 C 4,0 C 1,7 km/h (1 Bft)
02/03/2022 07:00 3,7 C 73 % 1025,0 hPa 0,0 l/m 0,2 km/h (0 Bft) SE 0,27 h 0,000 mm 35 W/m -0,6 C 3,7 C 0,9 km/h (0 Bft)
02/03/2022 08:00 5,7 C 71 % 1025,0 hPa 0,0 l/m 0,0 km/h (0 Bft) N 1,00 h 0,025 mm 168 W/m 0,9 C 5,7 C 0,2 km/h (0 Bft)
02/03/2022 09:00 9,2 C 62 % 1024,9 hPa 0,0 l/m 0,7 km/h (0 Bft) SE 1,00 h 0,076 mm 321 W/m 2,3 C 9,2 C 1,6 km/h (1 Bft)
02/03/2022 10:00 11,5 C 56 % 1024,1 hPa 0,0 l/m 3,3 km/h (1 Bft) S 1,00 h 0,152 mm 454 W/m 2,9 C 11,5 C 7,1 km/h (2 Bft)
02/03/2022 11:00 12,4 C 55 % 1023,3 hPa 0,0 l/m 4,8 km/h (1 Bft) S-SO 1,00 h 0,229 mm 530 W/m 3,6 C 12,4 C 9,3 km/h (2 Bft)
02/03/2022 12:00 12,7 C 57 % 1022,6 hPa 0,0 l/m 5,6 km/h (1 Bft) S 0,88 h 0,279 mm 503 W/m 4,3 C 12,7 C 10,6 km/h (2 Bft)
02/03/2022 13:00 12,5 C 60 % 1021,6 hPa 0,0 l/m 6,3 km/h (2 Bft) S-SE 0,98 h 0,279 mm 533 W/m 5,1 C 12,5 C 11,5 km/h (2 Bft)
02/03/2022 14:00 13,2 C 61 % 1020,7 hPa 0,0 l/m 5,5 km/h (1 Bft) S 0,75 h 0,305 mm 463 W/m 5,8 C 13,2 C 9,7 km/h (2 Bft)
02/03/2022 15:00 12,3 C 63 % 1020,1 hPa 0,0 l/m 6,2 km/h (2 Bft) S-SE 0,57 h 0,254 mm 319 W/m 5,6 C 12,3 C 10,5 km/h (2 Bft)
02/03/2022 16:00 11,6 C 68 % 1019,6 hPa 0,0 l/m 4,3 km/h (1 Bft) S 0,43 h 0,178 mm 149 W/m 5,8 C 11,6 C 7,6 km/h (2 Bft)
02/03/2022 17:00 11,2 C 72 % 1019,1 hPa 0,0 l/m 0,2 km/h (0 Bft) S-SO 0,15 h 0,102 mm 57 W/m 6,3 C 11,2 C 0,5 km/h (0 Bft)
02/03/2022 18:00 10,2 C 75 % 1019,0 hPa 0,0 l/m 0,0 km/h (0 Bft) N 0,07 h 0,025 mm 12 W/m 5,9 C 10,2 C 0,0 km/h (0 Bft)
02/03/2022 19:00 8,8 C 78 % 1018,9 hPa 0,0 l/m 0,0 km/h (0 Bft) N 0,00 h 0,000 mm 0 W/m 5,2 C 8,8 C 0,0 km/h (0 Bft)
02/03/2022 20:00 7,7 C 81 % 1018,9 hPa 0,0 l/m 0,0 km/h (0 Bft) N 0,00 h 0,025 mm 0 W/m 4,6 C 7,7 C 0,0 km/h (0 Bft)
02/03/2022 21:00 7,1 C 84 % 1018,9 hPa 0,0 l/m 0,0 km/h (0 Bft) N 0,00 h 0,000 mm 0 W/m 4,5 C 7,1 C 0,0 km/h (0 Bft)
02/03/2022 22:00 6,8 C 85 % 1018,8 hPa 0,0 l/m 0,0 km/h (0 Bft) N 0,00 h 0,000 mm 0 W/m 4,4 C 6,8 C 0,0 km/h (0 Bft)
02/03/2022 23:00 6,8 C 84 % 1018,6 hPa 0,0 l/m 0,0 km/h (0 Bft) N 0,00 h 0,000 mm 0 W/m 4,4 C 6,8 C 0,0 km/h (0 Bft)
03/03/2022 00:00 6,9 C 83 % 1018,4 hPa 0,0 l/m 0,0 km/h (0 Bft) N 0,00 h 0,000 mm 0 W/m 4,2 C 6,9 C 0,0 km/h (0 Bft)
03/03/2022 01:00 7,0 C 81 % 1018,1 hPa 0,0 l/m 0,0 km/h (0 Bft) N 0,00 h 0,000 mm 0 W/m 4,0 C 7,0 C 0,0 km/h (0 Bft)
03/03/2022 02:00 6,7 C 82 % 1017,7 hPa 0,0 l/m 0,0 km/h (0 Bft) N 0,00 h 0,000 mm 0 W/m 3,9 C 6,7 C 0,0 km/h (0 Bft)
03/03/2022 03:00 6,4 C 83 % 1017,2 hPa 0,0 l/m 0,0 km/h (0 Bft) N 0,00 h 0,000 mm 0 W/m 3,7 C 6,4 C 0,1 km/h (0 Bft)
03/03/2022 04:00 6,0 C 83 % 1016,8 hPa 0,0 l/m 0,0 km/h (0 Bft) N 0,00 h 0,000 mm 0 W/m 3,4 C 6,0 C 0,1 km/h (0 Bft)
03/03/2022 05:00 5,7 C 85 % 1016,6 hPa 0,0 l/m 0,1 km/h (0 Bft) S-SO 0,00 h 0,000 mm 0 W/m 3,4 C 5,7 C 0,6 km/h (0 Bft)
03/03/2022 06:00 5,4 C 86 % 1016,6 hPa 0,0 l/m 0,0 km/h (0 Bft) N 0,00 h 0,000 mm 0 W/m 3,2 C 5,4 C 0,1 km/h (0 Bft)
03/03/2022 07:00 5,4 C 88 % 1016,5 hPa 0,0 l/m 0,0 km/h (0 Bft) N 0,02 h 0,000 mm 22 W/m 3,5 C 5,4 C 0,0 km/h (0 Bft)
03/03/2022 08:00 6,7 C 89 % 1016,8 hPa 0,0 l/m 0,0 km/h (0 Bft) N 0,08 h 0,000 mm 101 W/m 5,0 C 6,7 C 0,0 km/h (0 Bft)
03/03/2022 09:00 9,0 C 84 % 1016,7 hPa 0,0 l/m 0,0 km/h (0 Bft) N 0,00 h 0,051 mm 136 W/m 6,5 C 9,0 C 0,2 km/h (0 Bft)
03/03/2022 10:00 11,2 C 78 % 1016,6 hPa 0,0 l/m 0,1 km/h (0 Bft) N 0,00 h 0,051 mm 195 W/m 7,5 C 11,2 C 0,8 km/h (0 Bft)
03/03/2022 11:00 13,1 C 71 % 1016,4 hPa 0,0 l/m 0,5 km/h (0 Bft) S 0,22 h 0,102 mm 315 W/m 8,1 C 13,1 C 1,8 km/h (1 Bft)
03/03/2022 12:00 14,0 C 69 % 1016,1 hPa 0,0 l/m 0,7 km/h (0 Bft) E-SE 0,58 h 0,152 mm 389 W/m 8,4 C 14,0 C 3,1 km/h (1 Bft)
03/03/2022 13:00 14,9 C 66 % 1015,3 hPa 0,0 l/m 1,4 km/h (1 Bft) E-SE 0,42 h 0,203 mm 368 W/m 8,6 C 14,9 C 4,4 km/h (1 Bft)
03/03/2022 14:00 11,8 C 83 % 1014,9 hPa 0,0 l/m 1,5 km/h (1 Bft) E 0,00 h 0,203 mm 147 W/m 8,9 C 11,8 C 4,8 km/h (1 Bft)
03/03/2022 15:00 11,0 C 88 % 1014,4 hPa 0,2 l/m 0,1 km/h (0 Bft) E 0,00 h 0,076 mm 45 W/m 9,1 C 11,0 C 0,9 km/h (0 Bft)
03/03/2022 16:00 10,0 C 91 % 1014,0 hPa 0,2 l/m 0,0 km/h (0 Bft) N 0,00 h 0,025 mm 43 W/m 8,5 C 10,0 C 0,1 km/h (0 Bft)
03/03/2022 17:00 9,8 C 93 % 1013,5 hPa 0,2 l/m 0,0 km/h (0 Bft) N 0,00 h 0,025 mm 28 W/m 8,7 C 9,8 C 0,0 km/h (0 Bft)
03/03/2022 18:00 9,6 C 93 % 1013,4 hPa 0,0 l/m 0,0 km/h (0 Bft) N 0,00 h 0,025 mm 6 W/m 8,5 C 9,6 C 0,0 km/h (0 Bft)
03/03/2022 19:00 8,9 C 92 % 1013,3 hPa 0,0 l/m 0,0 km/h (0 Bft) N 0,00 h 0,000 mm 0 W/m 7,7 C 8,9 C 0,0 km/h (0 Bft)
03/03/2022 20:00 8,4 C 93 % 1013,0 hPa 0,0 l/m 0,0 km/h (0 Bft) N 0,00 h 0,000 mm 0 W/m 7,3 C 8,4 C 0,0 km/h (0 Bft)
03/03/2022 21:00 7,9 C 94 % 1012,9 hPa 0,0 l/m 0,0 km/h (0 Bft) N 0,00 h 0,000 mm 0 W/m 7,0 C 7,9 C 0,0 km/h (0 Bft)
03/03/2022 22:00 7,5 C 94 % 1012,7 hPa 0,0 l/m 0,1 km/h (0 Bft) E-NE 0,00 h 0,000 mm 0 W/m 6,6 C 7,5 C 0,8 km/h (0 Bft)
03/03/2022 23:00 7,1 C 95 % 1012,2 hPa 0,0 l/m 0,3 km/h (0 Bft) E-NE 0,00 h 0,000 mm 0 W/m 6,3 C 7,1 C 1,8 km/h (1 Bft)
04/03/2022 00:00 6,8 C 95 % 1011,7 hPa 0,0 l/m 0,5 km/h (0 Bft) NE 0,00 h 0,000 mm 0 W/m 6,0 C 6,8 C 1,7 km/h (1 Bft)
04/03/2022 01:00 6,9 C 96 % 1011,6 hPa 0,0 l/m 0,6 km/h (0 Bft) NO 0,00 h 0,000 mm 0 W/m 6,3 C 6,9 C 2,3 km/h (1 Bft)
04/03/2022 02:00 7,2 C 95 % 1011,2 hPa 0,0 l/m 0,0 km/h (0 Bft) N 0,00 h 0,000 mm 0 W/m 6,4 C 7,2 C 0,0 km/h (0 Bft)
04/03/2022 03:00 7,5 C 94 % 1010,8 hPa 0,0 l/m 0,0 km/h (0 Bft) N 0,00 h 0,000 mm 0 W/m 6,6 C 7,5 C 0,0 km/h (0 Bft)
04/03/2022 04:00 7,9 C 94 % 1010,3 hPa 0,0 l/m 0,0 km/h (0 Bft) N 0,00 h 0,000 mm 0 W/m 6,9 C 7,9 C 0,0 km/h (0 Bft)
04/03/2022 05:00 8,0 C 93 % 1010,3 hPa 0,0 l/m 0,0 km/h (0 Bft) N 0,00 h 0,000 mm 0 W/m 7,0 C 8,0 C 0,0 km/h (0 Bft)
04/03/2022 06:00 7,9 C 92 % 1010,3 hPa 0,0 l/m 0,0 km/h (0 Bft) N 0,00 h 0,000 mm 0 W/m 6,7 C 7,9 C 0,0 km/h (0 Bft)
04/03/2022 07:00 7,8 C 92 % 1010,6 hPa 0,0 l/m 0,0 km/h (0 Bft) N 0,28 h 0,000 mm 41 W/m 6,5 C 7,8 C 0,1 km/h (0 Bft)
04/03/2022 08:00 8,7 C 89 % 1011,2 hPa 0,0 l/m 0,1 km/h (0 Bft) N-NO 0,53 h 0,025 mm 116 W/m 7,1 C 8,7 C 0,8 km/h (0 Bft)
04/03/2022 09:00 10,9 C 85 % 1011,8 hPa 0,0 l/m 0,3 km/h (0 Bft) E 0,40 h 0,051 mm 215 W/m 8,5 C 10,9 C 1,6 km/h (1 Bft)
04/03/2022 10:00 12,9 C 79 % 1012,1 hPa 0,0 l/m 1,1 km/h (1 Bft) E 0,22 h 0,102 mm 230 W/m 9,2 C 12,9 C 5,2 km/h (1 Bft)
04/03/2022 11:00 14,0 C 78 % 1012,0 hPa 0,0 l/m 1,7 km/h (1 Bft) E 0,55 h 0,127 mm 449 W/m 10,2 C 14,0 C 6,4 km/h (2 Bft)
04/03/2022 12:00 14,7 C 72 % 1012,0 hPa 0,0 l/m 2,4 km/h (1 Bft) E 0,85 h 0,254 mm 613 W/m 9,8 C 14,7 C 7,0 km/h (2 Bft)
04/03/2022 13:00 15,0 C 67 % 1011,7 hPa 0,0 l/m 2,0 km/h (1 Bft) E 0,70 h 0,330 mm 490 W/m 8,8 C 15,0 C 6,2 km/h (2 Bft)
04/03/2022 14:00 14,6 C 69 % 1011,2 hPa 0,0 l/m 2,1 km/h (1 Bft) E-SE 0,85 h 0,254 mm 453 W/m 9,0 C 14,6 C 5,8 km/h (2 Bft)
04/03/2022 15:00 14,0 C 71 % 1010,8 hPa 0,0 l/m 3,3 km/h (1 Bft) S-SE 0,68 h 0,254 mm 352 W/m 8,8 C 14,0 C 6,9 km/h (2 Bft)
04/03/2022 16:00 12,2 C 76 % 1010,8 hPa 0,0 l/m 2,2 km/h (1 Bft) S-SE 0,03 h 0,203 mm 44 W/m 8,2 C 12,2 C 4,2 km/h (1 Bft)
04/03/2022 17:00 11,2 C 81 % 1011,2 hPa 0,0 l/m 0,0 km/h (0 Bft) N 0,00 h 0,025 mm 23 W/m 8,0 C 11,2 C 0,2 km/h (0 Bft)
04/03/2022 18:00 10,7 C 83 % 1011,6 hPa 0,0 l/m 0,0 km/h (0 Bft) N 0,00 h 0,025 mm 5 W/m 7,9 C 10,7 C 0,0 km/h (0 Bft)
04/03/2022 19:00 10,0 C 86 % 1012,3 hPa 0,6 l/m 0,1 km/h (0 Bft) S-SE 0,00 h 0,000 mm 0 W/m 7,8 C 10,0 C 0,5 km/h (0 Bft)
04/03/2022 20:00 9,1 C 91 % 1012,8 hPa 0,6 l/m 0,1 km/h (0 Bft) S-SE 0,00 h 0,000 mm 0 W/m 7,7 C 9,1 C 0,6 km/h (0 Bft)
04/03/2022 21:00 8,0 C 93 % 1013,2 hPa 0,2 l/m 0,1 km/h (0 Bft) S-SE 0,00 h 0,000 mm 0 W/m 6,9 C 8,0 C 0,3 km/h (0 Bft)
04/03/2022 22:00 7,4 C 94 % 1013,8 hPa 1,6 l/m 0,0 km/h (0 Bft) S-SE 0,00 h 0,000 mm 0 W/m 6,5 C 7,4 C 0,3 km/h (0 Bft)
04/03/2022 23:00 7,0 C 94 % 1013,9 hPa 0,4 l/m 0,1 km/h (0 Bft) S-SE 0,00 h 0,000 mm 0 W/m 6,1 C 7,0 C 1,4 km/h (1 Bft)
05/03/2022 00:00 6,7 C 95 % 1013,7 hPa 0,0 l/m 1,6 km/h (1 Bft) S-SE 0,00 h 0,000 mm 0 W/m 6,0 C 6,7 C 3,9 km/h (1 Bft)
05/03/2022 01:00 6,7 C 95 % 1013,4 hPa 0,0 l/m 0,6 km/h (0 Bft) O 0,00 h 0,000 mm 0 W/m 6,0 C 6,7 C 2,5 km/h (1 Bft)
05/03/2022 02:00 6,6 C 95 % 1013,4 hPa 0,0 l/m 0,0 km/h (0 Bft) N 0,00 h 0,000 mm 0 W/m 5,8 C 6,6 C 0,2 km/h (0 Bft)
05/03/2022 03:00 6,5 C 94 % 1013,3 hPa 0,0 l/m 0,0 km/h (0 Bft) N 0,00 h 0,000 mm 0 W/m 5,7 C 6,5 C 0,3 km/h (0 Bft)
05/03/2022 04:00 6,4 C 95 % 1013,5 hPa 0,0 l/m 0,1 km/h (0 Bft) N 0,00 h 0,000 mm 0 W/m 5,6 C 6,4 C 0,3 km/h (0 Bft)
05/03/2022 05:00 6,3 C 95 % 1013,7 hPa 0,0 l/m 0,3 km/h (0 Bft) N-NE 0,00 h 0,000 mm 0 W/m 5,4 C 6,3 C 1,4 km/h (1 Bft)
05/03/2022 06:00 6,4 C 96 % 1014,4 hPa 1,0 l/m 0,4 km/h (0 Bft) E 0,00 h 0,000 mm 0 W/m 5,8 C 6,4 C 2,1 km/h (1 Bft)
05/03/2022 07:00 6,2 C 96 % 1014,6 hPa 0,2 l/m 0,0 km/h (0 Bft) N 0,00 h 0,000 mm 15 W/m 5,7 C 6,2 C 0,0 km/h (0 Bft)
05/03/2022 08:00 6,2 C 96 % 1014,9 hPa 0,0 l/m 0,0 km/h (0 Bft) N 0,00 h 0,000 mm 29 W/m 5,6 C 6,2 C 0,0 km/h (0 Bft)
05/03/2022 09:00 6,5 C 96 % 1015,2 hPa 0,0 l/m 0,0 km/h (0 Bft) N 0,00 h 0,000 mm 44 W/m 5,9 C 6,5 C 0,0 km/h (0 Bft)
05/03/2022 10:00 6,8 C 96 % 1015,4 hPa 0,2 l/m 0,0 km/h (0 Bft) N-NO 0,00 h 0,025 mm 75 W/m 6,3 C 6,8 C 0,4 km/h (0 Bft)
05/03/2022 11:00 7,1 C 96 % 1015,3 hPa 0,2 l/m 0,4 km/h (0 Bft) N-NO 0,00 h 0,025 mm 122 W/m 6,5 C 7,1 C 1,8 km/h (1 Bft)
05/03/2022 12:00 7,6 C 96 % 1015,2 hPa 0,2 l/m 0,0 km/h (0 Bft) N-NO 0,00 h 0,051 mm 107 W/m 6,9 C 7,6 C 0,4 km/h (0 Bft)
05/03/2022 13:00 7,7 C 95 % 1014,7 hPa 0,0 l/m 2,4 km/h (1 Bft) S-SO 0,00 h 0,051 mm 80 W/m 6,9 C 7,6 C 4,0 km/h (1 Bft)
05/03/2022 14:00 7,2 C 93 % 1014,3 hPa 0,0 l/m 0,1 km/h (0 Bft) S-SO 0,00 h 0,025 mm 52 W/m 6,2 C 7,2 C 0,3 km/h (0 Bft)
05/03/2022 15:00 7,4 C 93 % 1013,9 hPa 0,0 l/m 0,4 km/h (0 Bft) S-SO 0,02 h 0,025 mm 109 W/m 6,4 C 7,4 C 1,8 km/h (1 Bft)
05/03/2022 16:00 8,2 C 88 % 1013,5 hPa 0,0 l/m 0,0 km/h (0 Bft) N 0,00 h 0,051 mm 100 W/m 6,3 C 8,2 C 0,2 km/h (0 Bft)
05/03/2022 17:00 8,4 C 84 % 1013,2 hPa 0,0 l/m 0,0 km/h (0 Bft) N 0,00 h 0,051 mm 44 W/m 5,9 C 8,4 C 0,0 km/h (0 Bft)
05/03/2022 18:00 7,9 C 82 % 1013,5 hPa 0,0 l/m 0,0 km/h (0 Bft) N 0,00 h 0,025 mm 10 W/m 5,0 C 7,9 C 0,0 km/h (0 Bft)
05/03/2022 19:00 7,5 C 83 % 1014,0 hPa 0,0 l/m 0,0 km/h (0 Bft) N 0,00 h 0,000 mm 0 W/m 4,8 C 7,5 C 0,0 km/h (0 Bft)
05/03/2022 20:00 7,3 C 88 % 1014,3 hPa 0,0 l/m 0,0 km/h (0 Bft) N 0,00 h 0,000 mm 0 W/m 5,4 C 7,3 C 0,0 km/h (0 Bft)
05/03/2022 21:00 6,9 C 89 % 1014,7 hPa 0,0 l/m 0,0 km/h (0 Bft) N 0,00 h 0,000 mm 0 W/m 5,2 C 6,9 C 0,0 km/h (0 Bft)
05/03/2022 22:00 6,6 C 88 % 1015,1 hPa 0,0 l/m 0,0 km/h (0 Bft) N 0,00 h 0,000 mm 0 W/m 4,7 C 6,6 C 0,0 km/h (0 Bft)
05/03/2022 23:00 6,4 C 86 % 1015,2 hPa 0,0 l/m 0,0 km/h (0 Bft) N 0,00 h 0,000 mm 0 W/m 4,3 C 6,4 C 0,0 km/h (0 Bft)
06/03/2022 00:00 6,4 C 86 % 1015,2 hPa 0,0 l/m 0,3 km/h (0 Bft) S-SO 0,00 h 0,000 mm 0 W/m 4,2 C 6,4 C 0,6 km/h (0 Bft)
06/03/2022 01:00 6,3 C 88 % 1015,2 hPa 0,0 l/m 0,9 km/h (0 Bft) S-SO 0,00 h 0,000 mm 0 W/m 4,5 C 6,3 C 1,6 km/h (1 Bft)
06/03/2022 02:00 6,1 C 88 % 1015,0 hPa 0,0 l/m 0,0 km/h (0 Bft) N 0,00 h 0,000 mm 0 W/m 4,3 C 6,1 C 0,0 km/h (0 Bft)
06/03/2022 03:00 6,1 C 88 % 1014,6 hPa 0,0 l/m 0,1 km/h (0 Bft) S-SO 0,00 h 0,000 mm 0 W/m 4,3 C 6,1 C 0,2 km/h (0 Bft)
06/03/2022 04:00 5,9 C 91 % 1014,6 hPa 0,0 l/m 2,3 km/h (1 Bft) S-SO 0,00 h 0,000 mm 0 W/m 4,6 C 5,7 C 3,7 km/h (1 Bft)
06/03/2022 05:00 5,7 C 92 % 1014,8 hPa 0,2 l/m 0,8 km/h (0 Bft) S-SO 0,00 h 0,000 mm 0 W/m 4,6 C 5,7 C 1,8 km/h (1 Bft)
06/03/2022 06:00 5,3 C 94 % 1014,8 hPa 0,0 l/m 1,7 km/h (1 Bft) N-NO 0,00 h 0,000 mm 0 W/m 4,4 C 5,3 C 4,5 km/h (1 Bft)
06/03/2022 07:00 4,8 C 94 % 1014,9 hPa 0,2 l/m 3,2 km/h (1 Bft) O-NO 0,00 h 0,000 mm 7 W/m 3,9 C 4,7 C 5,7 km/h (1 Bft)
06/03/2022 08:00 5,1 C 92 % 1015,1 hPa 0,0 l/m 2,6 km/h (1 Bft) O-NO 0,00 h 0,000 mm 25 W/m 4,0 C 5,1 C 5,1 km/h (1 Bft)
06/03/2022 09:00 5,6 C 90 % 1015,7 hPa 0,0 l/m 1,9 km/h (1 Bft) O-NO 0,00 h 0,025 mm 58 W/m 4,2 C 5,6 C 4,4 km/h (1 Bft)
06/03/2022 10:00 6,5 C 89 % 1016,0 hPa 0,0 l/m 0,9 km/h (0 Bft) O-NO 0,00 h 0,025 mm 161 W/m 4,8 C 6,5 C 2,7 km/h (1 Bft)
06/03/2022 11:00 8,3 C 84 % 1016,3 hPa 0,0 l/m 0,1 km/h (0 Bft) O-NO 0,00 h 0,076 mm 250 W/m 5,7 C 8,3 C 0,4 km/h (0 Bft)
06/03/2022 12:00 8,8 C 72 % 1016,1 hPa 0,0 l/m 0,2 km/h (0 Bft) O-NO 0,00 h 0,102 mm 191 W/m 4,1 C 8,8 C 0,8 km/h (0 Bft)
06/03/2022 13:00 9,1 C 69 % 1015,5 hPa 0,0 l/m 1,3 km/h (1 Bft) O 0,05 h 0,102 mm 287 W/m 3,8 C 9,1 C 4,1 km/h (1 Bft)
06/03/2022 14:00 10,1 C 65 % 1014,8 hPa 0,0 l/m 1,8 km/h (1 Bft) SO 0,57 h 0,127 mm 384 W/m 3,8 C 10,1 C 4,9 km/h (1 Bft)
06/03/2022 15:00 9,2 C 66 % 1014,5 hPa 0,0 l/m 2,7 km/h (1 Bft) SO 0,03 h 0,178 mm 131 W/m 3,2 C 9,1 C 5,1 km/h (1 Bft)
06/03/2022 16:00 9,1 C 63 % 1014,3 hPa 0,0 l/m 2,4 km/h (1 Bft) SO 0,12 h 0,076 mm 130 W/m 2,4 C 9,0 C 5,1 km/h (1 Bft)
06/03/2022 17:00 8,3 C 66 % 1014,3 hPa 0,0 l/m 1,3 km/h (1 Bft) SO 0,00 h 0,076 mm 17 W/m 2,3 C 8,2 C 3,4 km/h (1 Bft)
06/03/2022 18:00 7,5 C 69 % 1014,8 hPa 0,0 l/m 0,2 km/h (0 Bft) SO 0,00 h 0,025 mm 0 W/m 2,3 C 7,5 C 1,1 km/h (1 Bft)
06/03/2022 19:00 7,1 C 71 % 1015,1 hPa 0,0 l/m 0,3 km/h (0 Bft) SO 0,00 h 0,000 mm 0 W/m 2,3 C 7,1 C 1,0 km/h (0 Bft)
06/03/2022 20:00 6,9 C 73 % 1015,2 hPa 0,0 l/m 1,5 km/h (1 Bft) SO 0,00 h 0,000 mm 0 W/m 2,3 C 6,9 C 3,1 km/h (1 Bft)
06/03/2022 21:00 6,5 C 71 % 1015,5 hPa 0,0 l/m 1,8 km/h (1 Bft) SO 0,00 h 0,000 mm 0 W/m 1,7 C 6,5 C 3,3 km/h (1 Bft)
06/03/2022 22:00 6,4 C 71 % 1015,8 hPa 0,0 l/m 1,5 km/h (1 Bft) SO 0,00 h 0,000 mm 0 W/m 1,4 C 6,4 C 3,4 km/h (1 Bft)
06/03/2022 23:00 6,2 C 71 % 1015,8 hPa 0,0 l/m 2,2 km/h (1 Bft) SO 0,00 h 0,000 mm 0 W/m 1,4 C 6,2 C 3,7 km/h (1 Bft)
Min-Date _ 28/02/22 28/02/22 04/03/22 - 28/02/22 - - - - 28/02/22 28/02/22 28/02/22
_ Min-Heure 07:12 10:07 05:00 - 00:00 - - - - 07:12 00:47 00:00
Minimum _ 3,2 C 32 % 1010,2 hPa - 0,0 km/h (0 Bft) - - - - -6,7 C 2,6 C 0,0 km/h (0 Bft)
Max-Date _ 03/03/22 05/03/22 01/03/22 04/03/22 01/03/22 - 28/02/22 28/02/22 04/03/22 04/03/22 03/03/22 01/03/22
_ Max-Heure 13:23 09:31 09:00 22:00 05:36 - 07:20 13:00 11:13 11:20 13:23 06:31
Maximum _ 16,6 C 97 % 1028,3 hPa 1,6 l/m 11,3 km/h
E-SE (2 Bft)
- 0,02 h 0,330 mm 824 W/m 11,2 C 16,6 C 29,0 km/h
E (5 Bft)
Moyenne _ 8,4 C 75 % 1018,5 hPa #6,2 l/m 0,9 km/h (0 Bft) SE #33:27 h #10,419 mm 221 W/m 3,9 C 8,4 C 2,4 km/h (1 Bft)
Roquefort les pins